Latest Weather Observations for Hillarys Point Boat Harbour

IDW60801

Issued at 11:03 am WST Wednesday 28 September 2016 (issued every 30 minutes, with the page automatically refreshed every 10 minutes)

About weather observations | Map of weather stations | Latest weather observations for WA | Other Formats
Station Details ID: 009265 Name: HILLARYS BOAT HARBOUR NTC AWS Lat: -31.83 Lon: 115.74 Height: 0.0 m
Data from the previous 72 hours. | See also: Recent months for locations in Western Australia
Date/Time
WST
Temp
°C
App
Temp
°C
Dew
Point
°C
Rel
Hum
%
Delta-T
°C
Wind Press
QNH
hPa
Press
MSL
hPa
Rain since
9am
mm
Dir  Spd
km/h
Gust
km/h
Spd
kts
Gust
kts
28/11:00am 12.8 - - - - SSW 9 20 5 11 1023.7 1023.7 -
28/10:30am 12.9 - - - - S 9 19 5 10 1023.8 1023.8 -
28/10:00am 12.6 - - - - S 7 20 4 11 1023.7 1023.7 -
28/09:30am 12.4 - - - - S 9 20 5 11 1023.7 1023.7 -
28/09:00am 12.0 - - - - S 11 22 6 12 1023.6 1023.6 -
28/08:30am 11.4 - - - - SSE 11 20 6 11 1023.4 1023.4 -
28/08:00am 10.9 - - - - SSE 15 26 8 14 1023.0 1023.0 -
28/07:30am 10.2 - - - - SSE 13 24 7 13 1022.5 1022.5 -
28/07:00am 9.7 - - - - SSE 9 22 5 12 1022.0 1022.0 -
28/06:30am 9.6 - - - - SE 9 19 5 10 1021.5 1021.5 -
28/06:00am 9.6 - - - - SSE 7 17 4 9 1020.9 1020.9 -
28/05:30am 9.5 - - - - SE 6 20 3 11 1020.2 1020.2 -
28/05:00am 9.5 - - - - SE 4 13 2 7 1019.5 1019.5 -
28/04:30am 10.0 - - - - SE 7 20 4 11 1019.1 1019.1 -
28/04:00am 10.1 - - - - SSE 9 19 5 10 1018.8 1018.8 -
28/03:30am 10.2 - - - - SSE 11 24 6 13 1018.5 1018.5 -
28/03:00am 10.1 - - - - SE 6 15 3 8 1018.1 1018.1 -
28/02:30am 10.2 - - - - SSE 13 24 7 13 1018.1 1018.1 -
28/02:00am 11.0 - - - - S 15 32 8 17 1017.9 1017.9 -
28/01:30am 11.8 - - - - S 15 39 8 21 1017.8 1017.8 -
28/01:00am 12.3 - - - - SSW 24 43 13 23 1017.3 1017.3 -
28/12:30am 12.5 - - - - SSW 26 46 14 25 1017.1 1017.1 -
28/12:20am 12.3 - - - - SSW 28 46 15 25 1016.9 1016.9 -
28/12:00am 13.2 - - - - SSW 24 44 13 24 1016.7 1016.7 -
 
Date/Time
WST
Temp
°C
App
Temp
°C
Dew
Point
°C
Rel
Hum
%
Delta-T
°C
Wind Press
QNH
hPa
Press
MSL
hPa
Rain since
9am
mm
Dir  Spd
km/h
Gust
km/h
Spd
kts
Gust
kts
27/11:30pm 12.4 - - - - SW 20 32 11 17 1016.5 1016.5 -
27/11:06pm 13.2 - - - - SW 28 48 15 26 1016.5 1016.5 -
27/11:00pm 13.4 - - - - SW 28 41 15 22 1016.4 1016.4 -
27/10:30pm 13.2 - - - - SW 30 50 16 27 1016.6 1016.6 -
27/10:26pm 13.1 - - - - SW 30 50 16 27 1016.6 1016.6 -
27/10:00pm 13.1 - - - - SW 33 50 18 27 1016.6 1016.6 -
27/09:36pm 13.7 - - - - SW 32 50 17 27 1016.1 1016.1 -
27/09:30pm 13.6 - - - - SW 28 46 15 25 1016.1 1016.1 -
27/09:00pm 13.5 - - - - SW 35 54 19 29 1016.0 1016.0 -
27/08:41pm 12.6 - - - - SW 33 54 18 29 1015.8 1015.8 -
27/08:30pm 14.1 - - - - SW 33 48 18 26 1015.5 1015.5 -
27/08:13pm 13.6 - - - - SW 33 52 18 28 1015.4 1015.4 -
27/08:00pm 13.9 - - - - SW 33 46 18 25 1015.2 1015.2 -
27/07:43pm 14.3 - - - - SW 39 57 21 31 1014.8 1014.8 -
27/07:30pm 14.3 - - - - SW 35 52 19 28 1014.7 1014.7 -
27/07:00pm 13.8 - - - - SW 32 52 17 28 1014.2 1014.2 -
27/06:54pm 14.1 - - - - SW 33 52 18 28 1014.1 1014.1 -
27/06:30pm 14.3 - - - - SW 33 50 18 27 1013.9 1013.9 -
27/06:00pm 14.6 - - - - SW 32 50 17 27 1013.3 1013.3 -
27/05:43pm 14.6 - - - - SW 33 52 18 28 1013.2 1013.2 -
27/05:30pm 14.6 - - - - SW 37 54 20 29 1012.8 1012.8 -
27/05:07pm 14.8 - - - - SW 35 54 19 29 1012.6 1012.6 -
27/05:00pm 14.9 - - - - SW 35 54 19 29 1012.5 1012.5 -
27/04:35pm 14.7 - - - - SW 35 54 19 29 1012.0 1012.0 -
27/04:30pm 14.9 - - - - SW 35 54 19 29 1011.9 1011.9 -
27/04:00pm 15.0 - - - - SW 39 57 21 31 1011.4 1011.4 -
27/03:30pm 15.0 - - - - SW 35 52 19 28 1011.1 1011.1 -
27/03:00pm 15.6 - - - - WSW 37 48 20 26 1010.7 1010.7 -
27/02:30pm 15.3 - - - - SW 32 44 17 24 1010.7 1010.7 -
27/02:00pm 14.0 - - - - SW 35 56 19 30 1010.9 1010.9 -
27/01:39pm 13.5 - - - - WSW 41 61 22 33 1010.7 1010.7 -
27/01:34pm 13.8 - - - - W 35 57 19 31 1010.7 1010.7 -
27/01:30pm 14.7 - - - - W 30 50 16 27 1010.6 1010.6 -
27/01:00pm 12.3 - - - - W 33 56 18 30 1011.2 1011.2 -
27/12:53pm 12.6 - - - - W 30 69 16 37 1011.4 1011.4 -
27/12:51pm 12.4 - - - - WNW 30 69 16 37 1011.3 1011.3 -
27/12:50pm 13.0 - - - - WNW 28 69 15 37 1011.3 1011.3 -
27/12:49pm 14.2 - - - - WNW 26 69 14 37 1011.3 1011.3 -
27/12:30pm 16.1 - - - - WNW 28 48 15 26 1010.8 1010.8 -
27/12:22pm 16.8 - - - - W 28 48 15 26 1010.9 1010.9 -
27/12:00pm 17.3 - - - - W 28 44 15 24 1011.2 1011.2 -
27/11:39am 17.4 - - - - W 28 46 15 25 1011.5 1011.5 -
27/11:30am 17.3 - - - - W 26 39 14 21 1011.6 1011.6 -
27/11:00am 16.9 - - - - WNW 24 39 13 21 1012.2 1012.2 -
27/10:32am 16.4 - - - - WNW 28 50 15 27 1012.6 1012.6 -
27/10:30am 17.3 - - - - WNW 26 41 14 22 1012.5 1012.5 -
27/10:00am 16.8 - - - - WNW 19 33 10 18 1012.8 1012.8 -
27/09:30am 16.2 - - - - WNW 20 33 11 18 1013.2 1013.2 -
27/09:00am 16.9 - - - - WNW 19 30 10 16 1013.4 1013.4 -
27/08:30am 16.9 - - - - W 17 26 9 14 1013.5 1013.5 -
27/08:00am 16.9 - - - - W 24 37 13 20 1013.8 1013.8 -
27/07:30am 16.6 - - - - WNW 22 37 12 20 1013.8 1013.8 -
27/07:00am 16.5 - - - - WNW 19 35 10 19 1013.7 1013.7 -
27/06:30am 16.4 - - - - W 20 35 11 19 1013.9 1013.9 -
27/06:00am 15.5 - - - - WNW 11 19 6 10 1014.1 1014.1 -
27/05:30am 14.5 - - - - WNW 28 44 15 24 1014.5 1014.5 -
27/05:00am 16.3 - - - - WNW 17 28 9 15 1014.4 1014.4 -
27/04:30am 16.3 - - - - WNW 17 28 9 15 1014.5 1014.5 -
27/04:00am 14.7 - - - - WNW 15 24 8 13 1014.7 1014.7 -
27/03:30am 15.9 - - - - WNW 17 30 9 16 1014.9 1014.9 -
27/03:00am 15.9 - - - - WNW 20 33 11 18 1015.3 1015.3 -
27/02:30am 14.7 - - - - WNW 17 33 9 18 1015.7 1015.7 -
27/02:00am 15.7 - - - - WNW 13 26 7 14 1016.2 1016.2 -
27/01:30am 15.4 - - - - W 28 44 15 24 1016.6 1016.6 -
27/01:00am 16.5 - - - - WNW 17 28 9 15 1016.8 1016.8 -
27/12:30am 16.2 - - - - WNW 17 30 9 16 1017.0 1017.0 -
27/12:00am 16.5 - - - - WNW 17 28 9 15 1017.3 1017.3 -
 
Date/Time
WST
Temp
°C
App
Temp
°C
Dew
Point
°C
Rel
Hum
%
Delta-T
°C
Wind Press
QNH
hPa
Press
MSL
hPa
Rain since
9am
mm
Dir  Spd
km/h
Gust
km/h
Spd
kts
Gust
kts
26/11:30pm 16.5 - - - - WNW 15 26 8 14 1017.6 1017.6 -
26/11:00pm 16.5 - - - - W 15 24 8 13 1017.8 1017.8 -
26/10:30pm 16.6 - - - - W 13 20 7 11 1018.2 1018.2 -
26/10:00pm 16.5 - - - - W 17 24 9 13 1018.4 1018.4 -
26/09:30pm 16.5 - - - - W 17 24 9 13 1018.4 1018.4 -
26/09:00pm 16.4 - - - - W 17 26 9 14 1018.5 1018.5 -
26/08:30pm 16.3 - - - - W 19 28 10 15 1018.4 1018.4 -
26/08:00pm 16.1 - - - - WNW 13 20 7 11 1018.4 1018.4 -
26/07:30pm 16.0 - - - - W 17 26 9 14 1018.3 1018.3 -
26/07:00pm 16.1 - - - - W 15 20 8 11 1018.2 1018.2 -
26/06:30pm 16.1 - - - - W 19 28 10 15 1018.2 1018.2 -
26/06:00pm 15.7 - - - - W 19 28 10 15 1018.3 1018.3 -
26/05:30pm 16.3 - - - - W 19 24 10 13 1018.3 1018.3 -
26/05:00pm 16.3 - - - - W 17 24 9 13 1018.3 1018.3 -
26/04:30pm 16.0 - - - - WNW 9 17 5 9 1018.3 1018.3 -
26/04:00pm 16.0 - - - - WNW 15 26 8 14 1018.3 1018.3 -
26/03:30pm 16.1 - - - - W 15 26 8 14 1018.4 1018.4 -
26/03:00pm 16.1 - - - - W 17 26 9 14 1018.5 1018.5 -
26/02:30pm 16.1 - - - - W 15 26 8 14 1018.5 1018.5 -
26/02:00pm 15.9 - - - - W 19 28 10 15 1018.8 1018.8 -
26/01:30pm 15.7 - - - - NW 11 19 6 10 1019.1 1019.1 -
26/01:00pm 15.5 - - - - W 20 32 11 17 1019.4 1019.4 -
26/12:30pm 16.0 - - - - W 15 24 8 13 1019.9 1019.9 -
26/12:00pm 16.1 - - - - WNW 13 22 7 12 1020.0 1020.0 -
26/11:30am 15.9 - - - - WNW 13 20 7 11 1020.1 1020.1 -
26/11:00am 16.0 - - - - WNW 9 17 5 9 1020.3 1020.3 -
26/10:30am 15.6 - - - - W 17 22 9 12 1020.9 1020.9 -
26/10:00am 15.5 - - - - WSW 19 28 10 15 1020.9 1020.9 -
26/09:30am 15.4 - - - - W 9 17 5 9 1020.7 1020.7 -
26/09:00am 15.1 - - - - W 13 20 7 11 1020.7 1020.7 -
26/08:30am 14.9 - - - - WNW 11 24 6 13 1020.5 1020.5 -
26/08:00am 13.3 - - - - NNE 7 15 4 8 1020.3 1020.3 -
26/07:30am 11.0 - - - - NNE 6 11 3 6 1020.2 1020.2 -
26/07:00am 10.2 - - - - NE 9 13 5 7 1020.1 1020.1 -
26/06:30am 9.5 - - - - NE 7 13 4 7 1020.1 1020.1 -
26/06:00am 9.4 - - - - NE 6 9 3 5 1019.9 1019.9 -
26/05:30am 9.4 - - - - NE 7 11 4 6 1019.7 1019.7 -
26/05:00am 9.1 - - - - NE 6 9 3 5 1019.5 1019.5 -
26/04:30am 9.1 - - - - NE 4 7 2 4 1019.5 1019.5 -
26/04:00am 9.4 - - - - NE 6 9 3 5 1019.7 1019.7 -
26/03:30am 9.5 - - - - ENE 6 7 3 4 1019.7 1019.7 -
26/03:00am 9.6 - - - - ENE 6 7 3 4 1019.5 1019.5 -
26/02:30am 9.6 - - - - NE 4 9 2 5 1019.7 1019.7 -
26/02:00am 10.0 - - - - ENE 6 9 3 5 1019.8 1019.8 -
26/01:30am 9.8 - - - - ENE 6 7 3 4 1019.9 1019.9 -
26/01:00am 10.0 - - - - ENE 7 9 4 5 1019.9 1019.9 -
26/12:30am 9.9 - - - - NE 4 7 2 4 1020.4 1020.4 -
26/12:00am 10.9 - - - - E 2 6 1 3 1020.5 1020.5 -
 
Date/Time
WST
Temp
°C
App
Temp
°C
Dew
Point
°C
Rel
Hum
%
Delta-T
°C
Wind Press
QNH
hPa
Press
MSL
hPa
Rain since
9am
mm
Dir  Spd
km/h
Gust
km/h
Spd
kts
Gust
kts
25/11:30pm 11.3 - - - - E 2 7 1 4 1020.6 1020.6 -
25/11:00pm 11.4 - - - - ENE 2 6 1 3 1020.4 1020.4 -
25/10:30pm 11.7 - - - - ESE 2 7 1 4 1020.5 1020.5 -
25/10:00pm 12.4 - - - - SE 4 11 2 6 1020.5 1020.5 -
25/09:30pm 13.3 - - - - SSE 9 17 5 9 1020.7 1020.7 -
25/09:00pm 13.2 - - - - SSE 7 13 4 7 1020.7 1020.7 -
25/08:30pm 13.6 - - - - S 6 15 3 8 1020.5 1020.5 -
25/08:00pm 14.2 - - - - SSW 11 24 6 13 1020.5 1020.5 -
25/07:30pm 14.1 - - - - SSW 11 22 6 12 1020.1 1020.1 -
25/07:00pm 14.1 - - - - SSW 13 24 7 13 1019.6 1019.6 -
25/06:30pm 14.1 - - - - SSW 13 26 7 14 1019.4 1019.4 -
25/06:00pm 14.3 - - - - SSW 13 24 7 13 1019.1 1019.1 -
25/05:30pm 14.3 - - - - SSW 13 24 7 13 1018.8 1018.8 -
25/05:00pm 14.6 - - - - SSW 15 26 8 14 1018.6 1018.6 -
25/04:30pm 14.5 - - - - SSW 17 30 9 16 1018.2 1018.2 -
25/04:00pm 14.5 - - - - SSW 15 28 8 15 1018.0 1018.0 -
25/03:30pm 14.5 - - - - SSW 15 30 8 16 1017.8 1017.8 -
25/03:00pm 14.1 - - - - SSW 15 26 8 14 1017.7 1017.7 -
25/02:30pm 14.1 - - - - SSW 17 30 9 16 1017.5 1017.5 -
25/02:00pm 14.3 - - - - SSW 15 28 8 15 1017.5 1017.5 -
25/01:30pm 14.0 - - - - SSW 15 28 8 15 1017.4 1017.4 -
25/01:00pm 13.9 - - - - SSW 15 30 8 16 1017.7 1017.7 -
25/12:30pm 13.8 - - - - SSW 15 28 8 15 1018.1 1018.1 -
25/12:00pm 13.6 - - - - SSW 15 26 8 14 1018.2 1018.2 -
25/11:30am 13.5 - - - - SSW 13 26 7 14 1018.3 1018.3 -

Other Formats:

Comma delimited format used in spreadsheet applications
http://www.bom.gov.au/fwo/IDW60801/IDW60801.95605.axf

JavaScript Object Notation format (JSON) in row-major order
http://www.bom.gov.au/fwo/IDW60801/IDW60801.95605.json